Sawston, United Kingdom
Current Conditions -  °F | °C
As of 9:50 AM on Sunday 21 Dec 2014 (Local Time) from EGSC Reporting Station
Broken Clouds Broken Clouds  
Wind Chill: 40°   Ceiling: 3500
Heat Index: 46°   Visibility: 6mi
Dew Point: 43°   Wind: 15mph
Humidity: 87%   Direction: 220°SW
Pressure: 30.27"   Gusts: NA
Location:  52.12°N, 0.17°E
Report Text: EGSC 210950Z 22013KT 180V240 9999 SCT014 BKN035 08/06 Q1025
Loading
Personal Weather Stations






























Interactive Weather Map New forecast layout! Learn more

10-Day Weather Forecast

Advertisements
Track Severe Weather on mobile